Time;durP1;ratioP1;P1;durP2;ratioP2;P2;SDS_P1;SDS_P2;PMS_P1;PMS_P2;Temp;Humidity;BMP_temperature;BMP_pressure;BME280_temperature;BME280_humidity;BME280_pressure;Samples;Min_cycle;Max_cycle;Signal;HPM_P1;HPM_P2
2023/05/18 00:01:14;;;;;;;9.80;3.23;;;7.50;99.90;;;;;;484589;245;28091;-81
2023/05/18 00:03:15;;;;;;;8.73;2.93;;;7.50;99.90;;;;;;484608;245;28056;-81
2023/05/18 00:05:20;;;;;;;8.93;3.43;;;7.50;99.90;;;;;;484585;245;27599;-81
2023/05/18 00:07:21;;;;;;;8.03;3.30;;;7.50;99.90;;;;;;484569;246;28059;-80
2023/05/18 00:09:22;;;;;;;9.53;3.40;;;7.50;99.90;;;;;;484597;245;27825;-84
2023/05/18 00:11:23;;;;;;;7.67;3.30;;;7.40;99.90;;;;;;484516;246;27944;-81
2023/05/18 00:13:24;;;;;;;4.40;3.40;;;7.40;99.90;;;;;;484580;245;28048;-79
2023/05/18 00:15:26;;;;;;;14.67;3.07;;;7.30;99.90;;;;;;484511;244;27974;-81
2023/05/18 00:17:27;;;;;;;6.93;3.07;;;7.30;99.90;;;;;;484536;246;27843;-81
2023/05/18 00:19:28;;;;;;;11.27;3.50;;;7.30;99.90;;;;;;484516;245;27857;-83
2023/05/18 00:21:32;;;;;;;6.07;2.60;;;7.30;99.90;;;;;;484492;245;27849;-81
2023/05/18 00:23:31;;;;;;;8.43;2.93;;;7.20;99.90;;;;;;484370;246;27602;-80
2023/05/18 00:25:32;;;;;;;4.40;2.57;;;7.20;99.90;;;;;;484482;245;27980;-81
2023/05/18 00:27:33;;;;;;;5.83;2.80;;;7.10;99.90;;;;;;484562;246;28185;-81
2023/05/18 00:29:34;;;;;;;10.00;2.80;;;7.10;99.90;;;;;;484505;245;28452;-80
2023/05/18 00:31:38;;;;;;;9.23;3.20;;;7.10;99.90;;;;;;484586;245;28536;-81
2023/05/18 00:33:37;;;;;;;11.30;3.70;;;7.00;99.90;;;;;;484499;245;27986;-81
2023/05/18 00:35:38;;;;;;;12.20;3.10;;;7.00;99.90;;;;;;484520;245;28019;-82
2023/05/18 00:37:39;;;;;;;8.60;2.77;;;6.90;99.90;;;;;;484531;245;27989;-82
2023/05/18 00:39:41;;;;;;;7.00;3.07;;;6.90;99.90;;;;;;484514;246;27728;-84
2023/05/18 00:41:42;;;;;;;9.53;3.20;;;6.80;99.90;;;;;;484530;245;27615;-86
2023/05/18 00:43:43;;;;;;;9.10;3.00;;;6.80;99.90;;;;;;484510;245;27856;-81
2023/05/18 00:45:44;;;;;;;8.77;2.97;;;6.70;99.90;;;;;;484581;244;27751;-83
2023/05/18 00:47:47;;;;;;;10.23;3.60;;;6.70;99.90;;;;;;484492;245;28043;-81
2023/05/18 00:49:47;;;;;;;8.77;3.37;;;6.60;99.90;;;;;;484441;246;28045;-82
2023/05/18 00:51:48;;;;;;;13.40;3.50;;;6.60;99.90;;;;;;484544;245;27761;-81
2023/05/18 00:53:49;;;;;;;13.40;3.77;;;6.50;99.90;;;;;;484515;244;27983;-84
2023/05/18 00:55:52;;;;;;;7.63;3.20;;;6.50;99.90;;;;;;484541;245;27972;-80
2023/05/18 00:57:55;;;;;;;7.50;3.40;;;6.50;99.90;;;;;;484471;246;28106;-80
2023/05/18 00:59:55;;;;;;;8.40;2.97;;;6.50;99.90;;;;;;484293;246;27954;-82
2023/05/18 01:01:55;;;;;;;6.60;2.97;;;6.50;99.90;;;;;;484426;245;28002;-82
2023/05/18 01:03:56;;;;;;;10.10;3.80;;;6.50;99.90;;;;;;484504;245;29438;-80
2023/05/18 01:05:57;;;;;;;10.40;3.20;;;6.50;99.90;;;;;;484494;245;28102;-81
2023/05/18 01:07:58;;;;;;;9.03;3.50;;;6.40;99.90;;;;;;484488;245;28315;-84
2023/05/18 01:10:00;;;;;;;4.73;3.47;;;6.40;99.90;;;;;;484598;245;27697;-82
2023/05/18 01:12:01;;;;;;;10.43;3.93;;;6.40;99.90;;;;;;484563;244;28073;-83
2023/05/18 01:14:02;;;;;;;6.20;3.10;;;6.40;99.90;;;;;;484532;245;28052;-82
2023/05/18 01:16:03;;;;;;;10.33;3.30;;;6.30;99.90;;;;;;484468;245;27908;-83
2023/05/18 01:18:04;;;;;;;12.07;3.40;;;6.30;99.90;;;;;;484501;245;28133;-82
2023/05/18 01:20:08;;;;;;;6.80;3.17;;;6.30;99.90;;;;;;484489;246;27840;-82
2023/05/18 01:22:11;;;;;;;7.53;3.67;;;6.30;99.90;;;;;;484533;245;28096;-81
2023/05/18 01:24:15;;;;;;;10.50;3.60;;;6.20;99.90;;;;;;484490;246;27851;-78
2023/05/18 01:26:13;;;;;;;8.13;3.50;;;6.20;99.90;;;;;;484260;246;28839;-82
2023/05/18 01:28:15;;;;;;;7.75;3.83;;;6.20;99.90;;;;;;484449;245;28988;-79
2023/05/18 01:30:15;;;;;;;12.70;3.80;;;6.10;99.90;;;;;;484322;246;27938;-83
2023/05/18 01:32:16;;;;;;;11.13;3.80;;;6.10;99.90;;;;;;484514;245;28432;-82
2023/05/18 01:34:17;;;;;;;10.47;4.10;;;6.10;99.90;;;;;;484461;245;27764;-81
2023/05/18 01:36:18;;;;;;;10.23;3.45;;;6.10;99.90;;;;;;484451;246;28838;-81
2023/05/18 01:38:20;;;;;;;8.07;3.05;;;6.10;99.90;;;;;;484484;245;27568;-80
2023/05/18 01:40:21;;;;;;;7.40;3.40;;;6.10;99.90;;;;;;484432;245;27581;-83
2023/05/18 01:42:22;;;;;;;11.87;3.27;;;6.10;99.90;;;;;;484486;245;27957;-84
2023/05/18 01:44:23;;;;;;;11.77;3.37;;;6.10;99.90;;;;;;484405;245;29344;-81
2023/05/18 01:46:25;;;;;;;9.07;3.30;;;6.10;99.90;;;;;;484426;245;27598;-84
2023/05/18 01:48:26;;;;;;;20.40;4.13;;;6.10;99.90;;;;;;484486;245;28985;-81
2023/05/18 01:50:27;;;;;;;8.63;2.83;;;6.10;99.90;;;;;;484489;245;28832;-80
2023/05/18 01:52:28;;;;;;;10.60;3.63;;;6.10;99.90;;;;;;484490;246;28865;-83
2023/05/18 01:54:30;;;;;;;9.10;3.85;;;6.10;99.90;;;;;;484423;245;27954;-81
2023/05/18 01:56:31;;;;;;;11.18;3.60;;;6.00;99.90;;;;;;484538;245;27486;-83
2023/05/18 01:58:32;;;;;;;10.73;3.63;;;6.00;99.90;;;;;;484499;245;27506;-83
2023/05/18 02:00:33;;;;;;;9.57;4.15;;;6.00;99.90;;;;;;484529;245;28871;-83
2023/05/18 02:02:35;;;;;;;7.23;3.57;;;6.00;99.90;;;;;;484484;245;27504;-79
2023/05/18 02:04:36;;;;;;;16.55;4.10;;;6.00;99.90;;;;;;484503;245;28958;-83
2023/05/18 02:06:37;;;;;;;16.58;3.58;;;6.00;99.90;;;;;;484601;246;27591;-81
2023/05/18 02:08:38;;;;;;;7.37;3.40;;;5.90;99.90;;;;;;484566;245;27522;-81
2023/05/18 02:10:40;;;;;;;12.00;3.97;;;6.00;99.90;;;;;;484504;245;28840;-82
2023/05/18 02:12:41;;;;;;;9.73;3.20;;;5.90;99.90;;;;;;484539;245;27498;-81
2023/05/18 02:14:42;;;;;;;10.13;3.40;;;5.90;99.90;;;;;;484508;245;28872;-80
2023/05/18 02:16:51;;;;;;;7.62;3.05;;;5.90;99.90;;;;;;484523;245;27490;-82
2023/05/18 02:18:45;;;;;;;8.98;4.35;;;5.90;99.90;;;;;;483817;246;27616;-79
2023/05/18 02:20:47;;;;;;;11.00;3.40;;;5.90;99.90;;;;;;484495;245;27520;-81
2023/05/18 02:22:47;;;;;;;7.40;3.42;;;5.90;99.90;;;;;;484376;246;28866;-83
2023/05/18 02:24:49;;;;;;;12.27;3.90;;;5.90;99.90;;;;;;484479;245;27585;-81
2023/05/18 02:26:50;;;;;;;10.25;3.80;;;5.80;99.90;;;;;;484464;245;27510;-81
2023/05/18 02:28:51;;;;;;;12.13;3.47;;;5.80;99.90;;;;;;484529;245;27580;-82
2023/05/18 02:30:52;;;;;;;10.10;4.12;;;5.80;99.90;;;;;;487259;244;27380;-81
2023/05/18 02:32:54;;;;;;;10.45;4.22;;;5.80;99.90;;;;;;487707;244;27424;-81
2023/05/18 02:34:55;;;;;;;12.83;4.10;;;5.70;99.90;;;;;;487650;244;27404;-80
2023/05/18 02:36:56;;;;;;;9.95;3.35;;;5.80;99.90;;;;;;487592;244;28780;-82
2023/05/18 02:38:57;;;;;;;10.23;3.08;;;5.70;99.90;;;;;;487626;244;27417;-81
2023/05/18 02:40:59;;;;;;;12.95;3.70;;;5.70;99.90;;;;;;487603;244;27505;-83
2023/05/18 02:43:00;;;;;;;12.53;4.03;;;5.80;99.90;;;;;;487598;244;27425;-81
2023/05/18 02:45:01;;;;;;;11.30;3.70;;;5.70;99.90;;;;;;487648;244;28016;-80
2023/05/18 02:47:02;;;;;;;7.43;3.17;;;5.70;99.90;;;;;;487699;244;27974;-80
2023/05/18 02:49:04;;;;;;;9.87;3.90;;;5.70;99.90;;;;;;487642;244;27864;-80
2023/05/18 02:51:05;;;;;;;11.70;4.03;;;5.60;99.90;;;;;;487691;244;28450;-82
2023/05/18 02:53:06;;;;;;;10.75;3.83;;;5.60;99.90;;;;;;487733;244;28836;-79
2023/05/18 02:55:07;;;;;;;5.45;3.60;;;5.60;99.90;;;;;;487761;244;27381;-82
2023/05/18 02:57:10;;;;;;;11.23;3.60;;;5.60;99.90;;;;;;487781;244;27400;-79
2023/05/18 02:59:10;;;;;;;11.75;3.70;;;5.50;99.90;;;;;;487651;244;27988;-83
2023/05/18 03:01:11;;;;;;;7.30;3.30;;;5.50;99.90;;;;;;487715;244;27404;-80
2023/05/18 03:03:14;;;;;;;8.53;3.57;;;5.50;99.90;;;;;;487670;244;27393;-82
2023/05/18 03:05:15;;;;;;;12.48;3.92;;;5.50;99.90;;;;;;487527;244;28389;-81
2023/05/18 03:07:15;;;;;;;12.90;4.00;;;5.50;99.90;;;;;;487585;244;27486;-83
2023/05/18 03:09:18;;;;;;;13.53;5.10;;;5.50;99.90;;;;;;487598;244;27911;-83
2023/05/18 03:11:17;;;;;;;14.75;4.35;;;5.40;99.90;;;;;;487509;244;27663;-82
2023/05/18 03:13:19;;;;;;;7.25;3.40;;;5.40;99.90;;;;;;487616;244;27410;-81
2023/05/18 03:15:20;;;;;;;8.73;3.30;;;5.40;99.90;;;;;;487659;244;27495;-85
2023/05/18 03:17:21;;;;;;;5.60;3.83;;;5.30;99.90;;;;;;487603;244;27484;-82
2023/05/18 03:19:23;;;;;;;11.02;4.60;;;5.30;99.90;;;;;;487692;244;27411;-83
2023/05/18 03:21:24;;;;;;;16.77;4.50;;;5.30;99.90;;;;;;487628;244;27488;-82
2023/05/18 03:23:25;;;;;;;12.95;4.30;;;5.30;99.90;;;;;;487656;244;27408;-79
2023/05/18 03:25:26;;;;;;;8.33;3.50;;;5.30;99.90;;;;;;487659;244;27400;-83
2023/05/18 03:27:28;;;;;;;10.50;3.70;;;5.30;99.90;;;;;;487642;244;27946;-80
2023/05/18 03:29:29;;;;;;;7.65;4.22;;;5.30;99.90;;;;;;487627;244;27400;-80
2023/05/18 03:31:30;;;;;;;8.57;3.60;;;5.20;99.90;;;;;;487634;244;27511;-84
2023/05/18 03:33:31;;;;;;;7.70;3.37;;;5.30;99.90;;;;;;487643;244;27411;-80
2023/05/18 03:35:33;;;;;;;12.00;4.03;;;5.30;99.90;;;;;;487598;244;27503;-82
2023/05/18 03:37:34;;;;;;;9.98;3.70;;;5.30;99.90;;;;;;487656;244;27416;-82
2023/05/18 03:39:35;;;;;;;11.30;4.18;;;5.30;99.90;;;;;;487625;244;27908;-81
2023/05/18 03:41:36;;;;;;;7.82;3.30;;;5.30;99.90;;;;;;487625;244;27467;-83
2023/05/18 03:43:38;;;;;;;11.65;3.55;;;5.20;99.90;;;;;;487621;244;27401;-81
2023/05/18 03:45:39;;;;;;;9.20;3.53;;;5.20;99.90;;;;;;487635;244;27480;-81
2023/05/18 03:47:40;;;;;;;8.50;3.00;;;5.30;99.90;;;;;;487639;244;27478;-80
2023/05/18 03:49:41;;;;;;;7.03;3.30;;;5.30;99.90;;;;;;487651;244;27485;-82
2023/05/18 03:51:43;;;;;;;4.32;2.87;;;5.40;99.90;;;;;;487708;244;27413;-83
2023/05/18 03:53:44;;;;;;;8.37;3.90;;;5.30;99.90;;;;;;487677;244;27431;-80
2023/05/18 03:55:45;;;;;;;7.87;3.10;;;5.30;99.90;;;;;;487568;244;28786;-83
2023/05/18 03:57:47;;;;;;;3.92;3.10;;;5.30;99.90;;;;;;487652;244;27377;-83
2023/05/18 03:59:48;;;;;;;7.07;3.25;;;5.30;99.90;;;;;;487648;244;27491;-81
2023/05/18 04:01:52;;;;;;;5.63;3.43;;;5.30;99.90;;;;;;487560;244;27493;-83
2023/05/18 04:03:51;;;;;;;9.25;4.05;;;5.30;99.90;;;;;;487361;244;28653;-81
2023/05/18 04:05:52;;;;;;;11.93;3.78;;;5.30;99.90;;;;;;487572;244;27430;-81
2023/05/18 04:07:56;;;;;;;16.48;4.37;;;5.30;99.90;;;;;;487554;244;27507;-81
2023/05/18 04:09:54;;;;;;;10.85;4.15;;;5.20;99.90;;;;;;487375;244;27416;-81
2023/05/18 04:11:55;;;;;;;10.90;4.62;;;5.20;99.90;;;;;;487560;244;27380;-84
2023/05/18 04:13:59;;;;;;;9.90;4.07;;;5.20;99.90;;;;;;487552;244;27872;-82
2023/05/18 04:16:02;;;;;;;7.72;3.60;;;5.30;99.90;;;;;;487558;244;27401;-79
2023/05/18 04:18:02;;;;;;;13.50;3.95;;;5.30;99.90;;;;;;487466;244;27581;-84
2023/05/18 04:20:11;;;;;;;8.77;4.40;;;5.30;99.90;;;;;;487615;244;27486;-82
2023/05/18 04:22:04;;;;;;;8.70;4.15;;;5.30;99.90;;;;;;486923;244;27417;-81
2023/05/18 04:24:06;;;;;;;6.13;3.57;;;5.30;99.90;;;;;;487605;244;27481;-80
2023/05/18 04:26:07;;;;;;;10.57;3.80;;;5.40;99.90;;;;;;487611;244;28821;-79
2023/05/18 04:28:08;;;;;;;9.20;3.93;;;5.40;99.90;;;;;;487611;244;28737;-83
2023/05/18 04:30:12;;;;;;;17.10;4.13;;;5.40;99.90;;;;;;487635;244;28073;-82
2023/05/18 04:32:13;;;;;;;10.63;4.30;;;5.40;99.90;;;;;;487619;244;28341;-81
2023/05/18 04:34:17;;;;;;;11.60;3.53;;;5.50;99.90;;;;;;487566;244;28083;-83
2023/05/18 04:36:18;;;;;;;7.60;4.10;;;5.50;99.90;;;;;;487415;244;27424;-82
2023/05/18 04:38:19;;;;;;;8.93;4.62;;;5.50;99.90;;;;;;487360;244;28667;-82
2023/05/18 04:40:18;;;;;;;10.77;4.40;;;5.40;99.90;;;;;;487529;244;27491;-83
2023/05/18 04:42:21;;;;;;;5.57;3.40;;;5.50;99.90;;;;;;487599;244;27500;-82
2023/05/18 04:44:21;;;;;;;7.90;3.35;;;5.60;99.90;;;;;;487484;244;28749;-79
2023/05/18 04:46:22;;;;;;;7.82;4.03;;;5.70;99.90;;;;;;487531;244;27420;-83
2023/05/18 04:48:24;;;;;;;9.27;4.23;;;5.70;99.90;;;;;;487660;244;27416;-81
2023/05/18 04:50:25;;;;;;;11.03;4.23;;;5.70;99.90;;;;;;487650;244;27900;-84
2023/05/18 04:52:29;;;;;;;8.73;3.83;;;5.60;99.90;;;;;;487713;244;27848;-83
2023/05/18 04:54:29;;;;;;;10.57;3.70;;;5.80;99.90;;;;;;487429;244;27902;-83
2023/05/18 04:56:28;;;;;;;7.70;4.00;;;5.80;99.90;;;;;;487533;244;27929;-79
2023/05/18 04:58:30;;;;;;;9.50;3.73;;;5.80;99.90;;;;;;487675;244;27894;-81
2023/05/18 05:00:31;;;;;;;10.60;3.60;;;5.80;99.90;;;;;;487693;244;27972;-83
2023/05/18 05:02:32;;;;;;;17.80;4.23;;;5.80;99.90;;;;;;487654;244;27642;-81
2023/05/18 05:04:34;;;;;;;11.57;3.90;;;5.80;99.90;;;;;;487578;244;27584;-82
2023/05/18 05:06:35;;;;;;;7.43;3.70;;;5.90;99.90;;;;;;487607;244;27891;-84
2023/05/18 05:08:36;;;;;;;7.00;4.27;;;5.90;99.90;;;;;;487610;244;27866;-82
2023/05/18 05:10:37;;;;;;;10.67;3.97;;;5.90;99.90;;;;;;487677;244;27968;-84
2023/05/18 05:12:38;;;;;;;14.30;4.13;;;5.90;99.90;;;;;;487664;244;27645;-80
2023/05/18 05:14:40;;;;;;;8.30;4.07;;;6.00;99.90;;;;;;487687;244;27613;-83
2023/05/18 05:16:41;;;;;;;9.73;3.60;;;6.00;99.90;;;;;;487717;244;27817;-82
2023/05/18 05:18:42;;;;;;;8.47;3.60;;;6.00;99.90;;;;;;487685;244;28669;-82
2023/05/18 05:20:43;;;;;;;11.13;4.00;;;6.10;99.90;;;;;;487642;244;27837;-81
2023/05/18 05:22:45;;;;;;;11.90;4.30;;;6.10;99.90;;;;;;487678;244;27756;-81
2023/05/18 05:24:46;;;;;;;15.97;4.07;;;6.20;99.90;;;;;;487668;244;27998;-84
2023/05/18 05:26:47;;;;;;;8.50;4.00;;;6.20;99.90;;;;;;487628;244;27859;-81
2023/05/18 05:28:49;;;;;;;11.80;4.80;;;6.20;99.90;;;;;;487588;244;27937;-82
2023/05/18 05:30:50;;;;;;;9.70;3.70;;;6.30;99.90;;;;;;487657;244;27764;-82
2023/05/18 05:32:51;;;;;;;13.50;4.17;;;6.30;99.90;;;;;;487582;244;27903;-81
2023/05/18 05:34:52;;;;;;;8.97;3.60;;;6.30;99.90;;;;;;487612;244;27881;-80
2023/05/18 05:36:54;;;;;;;10.70;3.47;;;6.40;99.90;;;;;;487586;244;27949;-78
2023/05/18 05:38:55;;;;;;;11.67;4.00;;;6.40;99.90;;;;;;487660;244;27649;-79
2023/05/18 05:40:56;;;;;;;13.43;3.80;;;6.50;99.90;;;;;;487667;244;27953;-84
2023/05/18 05:42:57;;;;;;;7.30;3.43;;;6.50;99.90;;;;;;487701;244;28001;-82
2023/05/18 05:44:59;;;;;;;6.17;3.27;;;6.50;99.90;;;;;;487622;244;27935;-79
2023/05/18 05:47:00;;;;;;;10.13;4.10;;;6.60;99.90;;;;;;487677;244;28594;-82
2023/05/18 05:49:01;;;;;;;11.13;3.40;;;6.70;99.90;;;;;;487685;244;27854;-80
2023/05/18 05:51:02;;;;;;;9.27;3.60;;;6.70;99.90;;;;;;487674;244;27727;-82
2023/05/18 05:53:04;;;;;;;6.30;3.27;;;6.70;99.90;;;;;;487672;244;27538;-80
2023/05/18 05:55:05;;;;;;;9.17;3.90;;;6.80;99.90;;;;;;487667;244;27769;-83
2023/05/18 05:57:06;;;;;;;10.10;3.70;;;6.80;99.90;;;;;;487645;244;27971;-82
2023/05/18 05:59:07;;;;;;;7.20;3.60;;;6.90;99.90;;;;;;487716;244;28192;-82
2023/05/18 06:01:09;;;;;;;17.00;4.10;;;6.90;99.90;;;;;;487771;244;27894;-81
2023/05/18 06:03:10;;;;;;;12.13;4.80;;;7.00;99.90;;;;;;487754;244;27944;-80
2023/05/18 06:05:11;;;;;;;8.93;2.90;;;7.10;99.90;;;;;;487732;244;27940;-84
2023/05/18 06:07:12;;;;;;;13.30;3.93;;;7.10;99.90;;;;;;487682;244;27960;-81
2023/05/18 06:09:14;;;;;;;9.60;3.67;;;7.10;99.90;;;;;;487670;244;27715;-82
2023/05/18 06:11:15;;;;;;;8.53;3.40;;;7.20;99.90;;;;;;487645;244;28042;-80
2023/05/18 06:13:16;;;;;;;14.00;4.10;;;7.20;99.90;;;;;;487672;244;27877;-81
2023/05/18 06:15:17;;;;;;;9.30;3.60;;;7.30;99.90;;;;;;487646;244;27361;-81
2023/05/18 06:17:19;;;;;;;7.87;3.57;;;7.30;99.90;;;;;;487544;244;27951;-81
2023/05/18 06:19:20;;;;;;;11.43;2.93;;;7.30;99.90;;;;;;487643;244;27937;-82
2023/05/18 06:21:21;;;;;;;10.77;3.77;;;7.30;99.90;;;;;;487616;244;27861;-83
2023/05/18 06:23:22;;;;;;;9.77;3.30;;;7.30;99.90;;;;;;487647;244;27389;-79
2023/05/18 06:25:24;;;;;;;7.10;3.03;;;7.40;99.90;;;;;;487640;244;27728;-80
2023/05/18 06:27:25;;;;;;;10.07;3.07;;;7.50;99.90;;;;;;487704;244;27882;-82
2023/05/18 06:29:26;;;;;;;12.03;3.27;;;7.50;99.90;;;;;;487637;244;27949;-81
2023/05/18 06:31:27;;;;;;;7.93;2.80;;;7.70;99.90;;;;;;487592;244;27881;-80
2023/05/18 06:33:29;;;;;;;15.23;4.20;;;7.70;99.90;;;;;;487672;244;27816;-80
2023/05/18 06:35:30;;;;;;;10.33;3.37;;;7.80;99.90;;;;;;487751;244;27834;-81
2023/05/18 06:37:31;;;;;;;9.17;2.90;;;7.90;99.90;;;;;;487792;244;27692;-81
2023/05/18 06:39:32;;;;;;;18.57;3.50;;;8.00;99.90;;;;;;487789;244;27837;-78
2023/05/18 06:41:34;;;;;;;9.73;3.27;;;8.10;99.90;;;;;;487741;244;28225;-81
2023/05/18 06:43:35;;;;;;;10.47;3.17;;;8.20;99.90;;;;;;487764;244;27740;-79
2023/05/18 06:45:36;;;;;;;8.03;3.60;;;8.20;99.90;;;;;;487768;244;28355;-79
2023/05/18 06:47:37;;;;;;;11.47;3.67;;;8.30;99.90;;;;;;487709;244;27823;-82
2023/05/18 06:49:39;;;;;;;11.30;3.80;;;8.20;99.90;;;;;;487768;244;27942;-79
2023/05/18 06:51:42;;;;;;;9.50;3.50;;;8.30;99.90;;;;;;487695;244;27813;-81
2023/05/18 06:53:41;;;;;;;11.50;3.93;;;8.40;99.90;;;;;;487551;244;27896;-80
2023/05/18 06:55:42;;;;;;;8.30;3.23;;;8.40;99.90;;;;;;487698;244;27635;-82
2023/05/18 06:57:44;;;;;;;6.37;2.93;;;8.50;99.90;;;;;;487650;244;27696;-82
2023/05/18 06:59:49;;;;;;;8.40;3.50;;;8.60;99.90;;;;;;487647;244;27748;-81
2023/05/18 07:01:46;;;;;;;13.20;3.53;;;8.60;99.90;;;;;;487406;244;28039;-80
2023/05/18 07:03:47;;;;;;;8.37;3.47;;;8.70;99.90;;;;;;487664;244;27757;-81
2023/05/18 07:05:49;;;;;;;16.37;3.40;;;8.90;99.90;;;;;;487670;244;27869;-82
2023/05/18 07:07:50;;;;;;;11.87;3.07;;;8.90;99.90;;;;;;487682;244;27832;-80
2023/05/18 07:09:53;;;;;;;6.50;2.93;;;8.90;99.90;;;;;;487735;244;28353;-81
2023/05/18 07:11:52;;;;;;;5.70;2.67;;;9.10;99.90;;;;;;487590;244;27587;-82
2023/05/18 07:13:54;;;;;;;11.30;2.97;;;9.00;99.90;;;;;;487778;244;27593;-80
2023/05/18 07:15:55;;;;;;;8.30;3.67;;;9.10;99.90;;;;;;487766;244;27953;-80
2023/05/18 07:17:56;;;;;;;7.30;3.00;;;9.10;99.90;;;;;;487788;244;27804;-78
2023/05/18 07:19:57;;;;;;;7.77;3.50;;;9.30;99.90;;;;;;487818;244;28142;-80
2023/05/18 07:21:59;;;;;;;6.20;3.33;;;9.40;99.90;;;;;;487837;244;27870;-82
2023/05/18 07:24:00;;;;;;;6.03;3.20;;;9.50;99.90;;;;;;487723;244;27756;-79
2023/05/18 07:26:01;;;;;;;6.70;2.83;;;9.60;99.90;;;;;;487793;244;27894;-79
2023/05/18 07:28:02;;;;;;;11.70;3.63;;;9.60;99.90;;;;;;487814;244;27787;-78
2023/05/18 07:30:04;;;;;;;8.87;3.13;;;9.60;99.90;;;;;;487735;244;27938;-81
2023/05/18 07:32:05;;;;;;;5.53;2.70;;;9.60;99.90;;;;;;487711;244;28000;-82
2023/05/18 07:34:06;;;;;;;10.43;3.70;;;9.70;99.90;;;;;;487689;244;27927;-80
2023/05/18 07:36:07;;;;;;;8.13;3.17;;;9.70;99.90;;;;;;487731;244;27708;-83
2023/05/18 07:38:09;;;;;;;4.77;2.90;;;9.90;99.90;;;;;;487745;244;27952;-80
2023/05/18 07:40:10;;;;;;;8.53;3.17;;;10.00;99.90;;;;;;487762;244;27405;-79
2023/05/18 07:42:11;;;;;;;5.87;3.00;;;9.90;99.90;;;;;;487737;244;27871;-83
2023/05/18 07:44:12;;;;;;;3.60;3.07;;;9.80;99.90;;;;;;487750;244;27790;-78
2023/05/18 07:46:14;;;;;;;5.43;2.63;;;10.10;99.90;;;;;;487803;244;28012;-79
2023/05/18 07:48:15;;;;;;;8.93;3.00;;;10.00;99.90;;;;;;487762;244;27930;-81
2023/05/18 07:50:16;;;;;;;2.90;2.23;;;10.20;99.90;;;;;;487817;244;28028;-80
2023/05/18 07:52:17;;;;;;;6.00;2.90;;;10.20;99.90;;;;;;487856;244;27718;-79
2023/05/18 07:54:19;;;;;;;5.60;2.90;;;10.30;99.90;;;;;;487812;244;27834;-80
2023/05/18 07:56:21;;;;;;;9.73;3.47;;;10.40;99.90;;;;;;487818;244;27937;-81
2023/05/18 07:58:21;;;;;;;8.30;2.80;;;10.50;99.90;;;;;;487890;244;27938;-78
2023/05/18 08:00:23;;;;;;;5.03;3.00;;;10.70;99.90;;;;;;487930;244;27987;-80
2023/05/18 08:02:24;;;;;;;7.70;2.70;;;10.60;99.90;;;;;;487928;244;27937;-78
2023/05/18 08:04:25;;;;;;;11.23;3.00;;;10.60;99.90;;;;;;487882;244;28577;-78
2023/05/18 08:06:26;;;;;;;6.13;3.80;;;10.80;99.90;;;;;;487922;244;28092;-80
2023/05/18 08:08:27;;;;;;;6.10;2.90;;;10.60;99.90;;;;;;487924;244;27914;-79
2023/05/18 08:10:29;;;;;;;5.80;2.70;;;10.60;99.90;;;;;;487892;244;27840;-80
2023/05/18 08:12:30;;;;;;;7.90;2.70;;;10.70;99.90;;;;;;487891;244;27962;-81
2023/05/18 08:16:41;;;;;;;12.23;2.77;;;10.80;99.90;;;;;;473726;237;28129;-82
2023/05/18 08:18:43;;;;;;;6.87;2.90;;;10.90;99.90;;;;;;476841;245;28093;-82
2023/05/18 08:20:44;;;;;;;7.73;3.03;;;10.60;99.90;;;;;;475056;245;28302;-82
2023/05/18 08:22:45;;;;;;;7.73;2.77;;;10.80;99.90;;;;;;477593;241;28414;-78
2023/05/18 08:24:46;;;;;;;10.50;2.70;;;10.80;99.90;;;;;;492795;238;28048;-81
2023/05/18 08:26:48;;;;;;;9.67;3.70;;;11.30;99.90;;;;;;492795;239;28695;-79
2023/05/18 08:29:02;;;;;;;9.73;3.03;;;11.00;99.80;;;;;;478850;244;28068;-80
2023/05/18 08:31:02;;;;;;;9.37;2.77;;;11.10;99.90;;;;;;489269;242;28200;-78
2023/05/18 08:33:03;;;;;;;6.53;3.07;;;11.30;99.90;;;;;;489363;239;28183;-78
2023/05/18 08:35:04;;;;;;;11.20;2.93;;;11.60;99.80;;;;;;489350;243;28183;-79
2023/05/18 08:39:17;;;;;;;6.43;2.80;;;11.90;96.10;;;;;;472500;249;28224;-81
2023/05/18 08:41:20;;;;;;;13.97;3.00;;;11.70;92.10;;;;;;477103;249;28675;-80
2023/05/18 08:43:21;;;;;;;11.80;2.60;;;11.60;91.50;;;;;;477065;247;28029;-84
2023/05/18 08:45:21;;;;;;;8.10;2.93;;;11.70;91.90;;;;;;477056;247;28239;-80
2023/05/18 08:47:25;;;;;;;7.27;3.20;;;11.80;91.50;;;;;;477068;249;28176;-82
2023/05/18 08:49:23;;;;;;;8.57;2.90;;;11.90;92.00;;;;;;476914;249;28106;-80
2023/05/18 08:51:25;;;;;;;9.33;3.30;;;11.90;92.10;;;;;;477090;249;28362;-81
2023/05/18 08:53:26;;;;;;;17.27;4.00;;;12.00;91.30;;;;;;477121;247;28026;-80
2023/05/18 08:55:27;;;;;;;6.23;2.63;;;11.80;90.90;;;;;;477102;249;27984;-78
2023/05/18 08:57:29;;;;;;;8.63;3.10;;;11.90;91.70;;;;;;477138;247;28077;-81
2023/05/18 08:59:30;;;;;;;10.20;3.83;;;12.10;91.20;;;;;;495807;237;28437;-82
2023/05/18 09:01:31;;;;;;;7.20;2.60;;;12.00;91.20;;;;;;502984;235;28441;-82
2023/05/18 09:03:32;;;;;;;7.40;3.13;;;12.30;92.10;;;;;;502977;236;28813;-82
2023/05/18 09:05:35;;;;;;;12.30;3.40;;;;;;;;;;503043;231;28542;-84
2023/05/18 09:07:36;;;;;;;15.10;3.17;;;12.00;90.70;;;;;;503053;235;26780;-81
2023/05/18 09:09:37;;;;;;;9.43;2.80;;;12.00;91.10;;;;;;494188;235;29546;-81
2023/05/18 09:11:38;;;;;;;7.23;2.97;;;12.10;91.90;;;;;;470711;253;28941;-81
2023/05/18 09:13:40;;;;;;;7.60;3.50;;;12.10;91.10;;;;;;476802;246;28317;-81
2023/05/18 09:15:41;;;;;;;12.30;2.90;;;12.20;91.10;;;;;;470678;246;28887;-80
2023/05/18 09:17:42;;;;;;;10.17;3.40;;;12.10;91.00;;;;;;476747;246;28792;-81
2023/05/18 09:19:43;;;;;;;6.90;3.20;;;12.10;90.60;;;;;;470713;246;27878;-81
2023/05/18 09:21:45;;;;;;;11.30;3.47;;;12.20;91.00;;;;;;476776;246;27989;-79
2023/05/18 09:23:47;;;;;;;9.57;3.83;;;;;;;;;;470691;246;28093;-87
2023/05/18 09:25:51;;;;;;;6.37;2.97;;;12.20;90.60;;;;;;467970;255;26961;-81
2023/05/18 09:27:52;;;;;;;10.30;3.10;;;12.50;89.80;;;;;;487333;245;28121;-80
2023/05/18 09:29:53;;;;;;;8.13;3.33;;;12.70;90.00;;;;;;476717;248;28072;-82
2023/05/18 09:31:55;;;;;;;7.90;3.00;;;12.60;87.80;;;;;;470545;246;28180;-82
2023/05/18 09:33:56;;;;;;;8.30;3.17;;;12.60;90.10;;;;;;476390;250;28512;-83
2023/05/18 09:35:58;;;;;;;8.70;2.90;;;12.60;89.70;;;;;;470561;246;28757;-83
2023/05/18 09:37:59;;;;;;;7.60;3.20;;;12.80;90.10;;;;;;476588;250;28847;-81
2023/05/18 09:40:00;;;;;;;11.60;3.70;;;12.70;89.20;;;;;;470432;253;28309;-84
2023/05/18 09:42:02;;;;;;;12.70;3.37;;;12.70;89.60;;;;;;476549;250;28142;-79
2023/05/18 09:44:07;;;;;;;11.13;3.63;;;12.70;89.40;;;;;;470556;246;28310;-81
2023/05/18 09:46:05;;;;;;;10.43;3.80;;;;;;;;;;476331;250;28278;-83
2023/05/18 09:48:06;;;;;;;8.87;3.47;;;12.70;90.10;;;;;;470534;253;27025;-84
2023/05/18 09:50:07;;;;;;;6.63;3.43;;;12.90;90.50;;;;;;476661;250;28132;-81
2023/05/18 09:52:09;;;;;;;9.07;3.50;;;13.10;89.60;;;;;;470570;249;28214;-82
2023/05/18 09:54:10;;;;;;;9.60;4.20;;;13.00;89.10;;;;;;476605;250;28152;-80
2023/05/18 09:56:13;;;;;;;11.40;4.00;;;12.70;89.30;;;;;;470537;253;28173;-83
2023/05/18 09:58:13;;;;;;;9.80;3.50;;;12.90;90.50;;;;;;476358;250;28370;-84
2023/05/18 10:00:14;;;;;;;7.93;3.70;;;13.00;89.50;;;;;;470243;253;28217;-83
2023/05/18 10:02:17;;;;;;;6.07;3.83;;;13.00;90.50;;;;;;476167;250;28230;-84
2023/05/18 10:04:18;;;;;;;8.70;3.73;;;;;;;;;;470075;253;28512;-84
2023/05/18 10:06:21;;;;;;;8.43;4.20;;;12.90;90.20;;;;;;467613;255;26973;-86
2023/05/18 10:08:20;;;;;;;5.03;3.00;;;12.90;90.00;;;;;;486673;245;28449;-83
2023/05/18 10:10:21;;;;;;;9.80;3.67;;;13.20;89.80;;;;;;486645;244;28332;-85
2023/05/18 10:12:22;;;;;;;11.00;3.47;;;13.40;89.20;;;;;;476029;248;28452;-85
2023/05/18 10:14:26;;;;;;;12.90;4.23;;;13.60;89.20;;;;;;469823;253;28433;-83
2023/05/18 10:16:25;;;;;;;7.77;3.70;;;13.60;89.00;;;;;;475630;250;28497;-86
2023/05/18 10:18:26;;;;;;;10.47;3.63;;;13.70;88.70;;;;;;469663;253;28412;-85
2023/05/18 10:20:27;;;;;;;9.87;4.27;;;13.60;88.20;;;;;;475705;250;28912;-85
2023/05/18 10:22:29;;;;;;;6.33;3.60;;;13.40;88.20;;;;;;469711;253;29355;-85
2023/05/18 10:24:30;;;;;;;9.37;3.63;;;13.60;88.90;;;;;;475656;250;29026;-82
2023/05/18 10:26:31;;;;;;;8.43;3.77;;;13.70;87.80;;;;;;469737;253;28808;-86
2023/05/18 10:28:32;;;;;;;8.90;3.60;;;13.50;86.50;;;;;;475890;250;28803;-84
2023/05/18 10:30:34;;;;;;;8.40;3.40;;;13.50;86.10;;;;;;469762;249;28510;-85
2023/05/18 10:32:35;;;;;;;7.17;3.40;;;13.60;88.80;;;;;;475913;250;28563;-82
2023/05/18 10:34:36;;;;;;;9.10;3.60;;;13.80;89.70;;;;;;469833;251;28610;-82
2023/05/18 10:36:38;;;;;;;9.80;4.17;;;13.60;86.60;;;;;;475959;250;28880;-85
2023/05/18 10:38:39;;;;;;;9.43;3.63;;;13.50;89.60;;;;;;474151;231;28752;-84